CheckWX is a tool to help pilots better visualize weather data.  It is not intended as a substitute for an official pre-flight weather briefing.

00:44:24 UTC

EGMC METAR
Southend Airport
Southend, United Kingdom
Current

24 mins ago

EGMC 060020Z 22018KT 8000 -RA BKN017 10/07 Q1010
Observed
Dec-6 @ 00:20 UTC
Wind
  • 220° at 18 KTS
Visibility
8,000 meters
Flight Rules
MVFR
Conditions
Light Rain
Cloud Levels
  • Broken at 1,700' AGL
Temperature
10°C / 50°F
Dewpoint
C / 45°F
Humidity
82%
Altimeter
29.82" Hg
Pressure
1009.92 hPa
Previous

54 mins ago

EGMC 052350Z 22019KT 9999 BKN017 10/07 Q1011
Observed
Dec-5 @ 23:50 UTC
Wind
  • 220° at 19 KTS
Visibility
10,000+ meters
Flight Rules
MVFR
Cloud Levels
  • Broken at 1,700' AGL
Temperature
10°C / 50°F
Dewpoint
C / 45°F
Humidity
82%
Altimeter
29.85" Hg
Pressure
1010.92 hPa
Previous

1 hour ago

EGMC 052320Z 23018KT 9999 OVC019 10/07 Q1011
Observed
Dec-5 @ 23:20 UTC
Wind
  • 230° at 18 KTS
Visibility
10,000+ meters
Flight Rules
MVFR
Cloud Levels
  • Overcast at 1,900' AGL
Temperature
10°C / 50°F
Dewpoint
C / 45°F
Humidity
82%
Altimeter
29.85" Hg
Pressure
1010.92 hPa